Thunder radar more information blitzortung!


Radar de pluja more information rain snow radar


Visita la nostra xarxa de llocs de meteo:

Template documentation
and downloads

And another site



No particular awareness of the weather is required.    There are no Weather-warnings

Pagina Historial Weather Underground text

Diari Resum May 31, 2017 Unitats:  Imperial    Mètric   Tant
« Previous Dia
SegĂźent Dia »
Diari Setmana Mensual Anual Personalitzada
  Maxima: Minima: Media:
Temperatura: 83.1 °F 60.3 °F 71.4 °F
Punt de rosada: 54.3 °F 47.5 °F 50.4 °F
Humitat: 66 % 35 % 49 %
Wind Speed: 12.8 mph 0 mph 3.8 mph
RĂ fegues de vent: 12.8 mph - -
Vent:- - SE
Pression baro: 30.1 in 30 in -
Precipitacions: 0 in    
Historical Graphs
 
 
Dades de taula per May 31, 2017
Temps Temperatura Punt de rosada Pression baro Vent Wind Speed RĂ fegues de vent Humitat Rainfall Rate (Hourly)
00:04 64 °F 48.6 °F 30.1 in Calm     57 % 0 in
00:05 60.3 °F 48.4 °F 30.1 in Calm   2 mph 65 % 0 in
00:15 60.3 °F 48.4 °F 30.1 in West 1 mph 2 mph 65 % 0 in
00:25 60.6 °F 48.7 °F 30.1 in WSW 2 mph 3 mph 65 % 0 in
00:35 60.6 °F 48.7 °F 30.1 in WSW 1 mph 2 mph 65 % 0 in
00:45 60.6 °F 48.7 °F 30.1 in Calm   3 mph 65 % 0 in
00:55 60.4 °F 48.6 °F 30 in West 1 mph 2 mph 65 % 0 in
01:05 60.6 °F 48.7 °F 30.1 in WSW 1 mph 3 mph 65 % 0 in
01:15 60.4 °F 48.6 °F 30.1 in SW 1 mph 2 mph 65 % 0 in
01:25 60.4 °F 48.6 °F 30.1 in SW 1 mph 2 mph 65 % 0 in
01:35 60.4 °F 48.6 °F 30.1 in Calm   2 mph 65 % 0 in
01:45 60.4 °F 48.6 °F 30.1 in Calm   1 mph 65 % 0 in
01:55 60.8 °F 49.5 °F 30.1 in Calm     66 % 0 in
02:05 61.2 °F 49.6 °F 30.1 in Calm   2 mph 66 % 0 in
02:15 61.2 °F 49.6 °F 30.1 in North 1 mph 2 mph 66 % 0 in
02:25 60.8 °F 49.5 °F 30.1 in Calm   2 mph 66 % 0 in
02:35 61 °F 49.5 °F 30.1 in WSW 1 mph 2 mph 66 % 0 in
02:45 61.2 °F 49.6 °F 30.1 in WSW 1 mph 1 mph 66 % 0 in
02:55 61.3 °F 49.8 °F 30.1 in Calm     66 % 0 in
03:05 61.5 °F 49.6 °F 30.1 in Calm   1 mph 65 % 0 in
03:15 62.1 °F 50.5 °F 30.1 in Calm   1 mph 66 % 0 in
03:25 62.8 °F 50.7 °F 30.1 in Calm     65 % 0 in
03:35 63.9 °F 51.4 °F 30.1 in North 1 mph 2 mph 64 % 0 in
03:45 65.1 °F 52.2 °F 30.1 in NE 1 mph 2 mph 63 % 0 in
03:55 64.9 °F 52 °F 30.1 in NE 3 mph 4 mph 63 % 0 in
04:05 65.8 °F 52.9 °F 30.1 in NNE 1 mph 3 mph 63 % 0 in
04:15 66.9 °F 52.5 °F 30.1 in NNE 2 mph 2 mph 60 % 0 in
04:25 67.1 °F 52.7 °F 30.1 in ENE 1 mph 3 mph 60 % 0 in
04:35 67.5 °F 52.5 °F 30.1 in ENE 2 mph 4 mph 59 % 0 in
04:45 67.8 °F 53.1 °F 30.1 in NE 2 mph 4 mph 59 % 0 in
04:55 69.3 °F 53.8 °F 30.1 in NE 1 mph 3 mph 58 % 0 in
05:05 68.7 °F 53.2 °F 30.1 in NE 3 mph 4 mph 58 % 0 in
05:15 68.4 °F 53.1 °F 30.1 in NE 1 mph 7 mph 58 % 0 in
05:25 68.5 °F 53.2 °F 30.1 in NE 3 mph 4 mph 58 % 0 in
05:35 69.1 °F 53.8 °F 30.1 in NE 2 mph 6 mph 58 % 0 in
05:40 69.3 °F 53.4 °F 30.1 in NNE 3 mph 3 mph 57 % 0 in
10:42 69.4 °F 53.4 °F 30.1 in NE 4 mph 4 mph 57 % 0 in
10:43 69.4 °F 53.4 °F 30.1 in NE 4.6 mph 4.6 mph 57 % 0 in
10:48 70 °F 54 °F 30.1 in NE 4.6 mph 4.6 mph 57 % 0 in
10:53 70.2 °F 53.8 °F 30.1 in North 5.8 mph 5.8 mph 56 % 0 in
10:58 70.5 °F 54.1 °F 30.1 in NNE 4.6 mph 4.6 mph 56 % 0 in
11:03 71.1 °F 54.1 °F 30.1 in North 3.5 mph 3.5 mph 55 % 0 in
11:08 72 °F 54.3 °F 30.1 in ENE 2.3 mph 2.3 mph 54 % 0 in
11:13 72.1 °F 53.4 °F 30.1 in ENE 3.5 mph 3.5 mph 52 % 0 in
11:18 72.9 °F 53.8 °F 30.1 in ENE 3.5 mph 3.5 mph 51 % 0 in
11:23 72.9 °F 53.1 °F 30.1 in ESE 2.4 mph 2.4 mph 50 % 0 in
11:28 74.1 °F 53.2 °F 30.1 in SE 2.3 mph 2.3 mph 48 % 0 in
11:33 74.5 °F 53.4 °F 30.1 in NNE 4.6 mph 4.6 mph 48 % 0 in
11:38 74.5 °F 53.4 °F 30.1 in ENE 4.9 mph 4.9 mph 48 % 0 in
11:43 75.2 °F 54.1 °F 30.1 in North 4.6 mph 4.6 mph 48 % 0 in
11:48 75 °F 53.4 °F 30.1 in NE 5.8 mph 5.8 mph 47 % 0 in
11:53 74.7 °F 53.1 °F 30.1 in ENE 4 mph 4 mph 47 % 0 in
11:58 74.8 °F 53.2 °F 30.1 in NE 5.8 mph 5.8 mph 47 % 0 in
12:03 74.7 °F 52.5 °F 30.1 in NNE 4.6 mph 4.6 mph 46 % 0 in
12:08 75.4 °F 53.2 °F 30.1 in ENE 4.6 mph 4.6 mph 46 % 0 in
12:13 75 °F 52.9 °F 30.1 in ENE 4.6 mph 4.6 mph 46 % 0 in
12:18 75.9 °F 53.6 °F 30.1 in ESE 3.5 mph 3.5 mph 46 % 0 in
12:23 76.1 °F 53.2 °F 30.1 in SSE 3.5 mph 3.5 mph 45 % 0 in
12:28 76.5 °F 53.4 °F 30.1 in NE 4.3 mph 4.3 mph 45 % 0 in
12:33 76.3 °F 53.4 °F 30.1 in NE 4.6 mph 4.6 mph 45 % 0 in
12:38 76.1 °F 52.5 °F 30.1 in NW 4.6 mph 4.6 mph 44 % 0 in
12:43 77.2 °F 53.6 °F 30.1 in SW 2.3 mph 2.3 mph 44 % 0 in
12:48 78.1 °F 54.3 °F 30.1 in ENE 2.3 mph 2.3 mph 44 % 0 in
12:53 78.1 °F 53.1 °F 30.1 in SSE 3.5 mph 3.5 mph 42 % 0 in
12:58 78.3 °F 53.2 °F 30.1 in ENE 2.3 mph 2.3 mph 42 % 0 in
13:03 78.8 °F 54.3 °F 30.1 in East 1.2 mph 1.2 mph 43 % 0 in
13:08 78.6 °F 53.6 °F 30.1 in East 2.3 mph 2.6 mph 42 % 0 in
13:13 78.6 °F 53.6 °F 30.1 in NE 4.6 mph 4.6 mph 42 % 0 in
13:18 78.6 °F 52.9 °F 30.1 in NE 4.6 mph 4.6 mph 41 % 0 in
13:23 78.4 °F 52.9 °F 30.1 in East 3.1 mph 3.1 mph 41 % 0 in
13:28 78.8 °F 53.1 °F 30.1 in NE 2.9 mph 2.9 mph 41 % 0 in
13:33 79.2 °F 52.9 °F 30.1 in NNW 5.8 mph 5.8 mph 40 % 0 in
13:38 78.4 °F 51.4 °F 30.1 in NE 8.1 mph 8.1 mph 39 % 0 in
13:43 79.3 °F 52.9 °F 30.1 in West 5.9 mph 5.9 mph 40 % 0 in
13:48 78.8 °F 51.6 °F 30.1 in SW 5.8 mph 5.8 mph 39 % 0 in
13:53 79.3 °F 52.2 °F 30.1 in ENE 5.4 mph 5.4 mph 39 % 0 in
13:56 79 °F 52 °F 30.1 in NE 4.6 mph 4.6 mph 39 % 0 in
14:01 78.8 °F 51.1 °F 30.1 in SSE 6 mph 6 mph 38 % 0 in
14:06 78.6 °F 51.6 °F 30.1 in SW 3.6 mph 3.6 mph 39 % 0 in
14:11 79.2 °F 50.5 °F 30.1 in ESE 6.9 mph 6.9 mph 37 % 0 in
14:16 78.6 °F 50.2 °F 30.1 in ESE 4.6 mph 4.6 mph 37 % 0 in
14:21 79 °F 50.5 °F 30 in ESE 6.9 mph 6.9 mph 37 % 0 in
14:26 79.3 °F 51.4 °F 30 in ESE 4.6 mph 4.6 mph 38 % 0 in
14:31 79.3 °F 51.4 °F 30 in WNW 2.6 mph 2.6 mph 38 % 0 in
14:36 80.1 °F 51.4 °F 30 in East 5.8 mph 5.8 mph 37 % 0 in
14:41 80.6 °F 52 °F 30 in WSW 2 mph 2 mph 37 % 0 in
14:46 81 °F 52.2 °F 30 in NNE 5.8 mph 5.8 mph 37 % 0 in
14:51 80.4 °F 51.8 °F 30.1 in East 2.9 mph 2.9 mph 37 % 0 in
14:56 81.3 °F 52.5 °F 30.1 in SSE 5.9 mph 5.9 mph 37 % 0 in
15:01 81.5 °F 52.7 °F 30.1 in SSW 4.6 mph 4.6 mph 37 % 0 in
15:06 81.7 °F 52.9 °F 30.1 in SSW 4.6 mph 4.6 mph 37 % 0 in
15:11 83.1 °F 54.1 °F 30.1 in SW 3.6 mph 3.6 mph 37 % 0 in
15:16 82.9 °F 53.2 °F 30.1 in East 5.8 mph 5.8 mph 36 % 0 in
15:21 81.9 °F 52.3 °F 30.1 in ENE 5.8 mph 5.8 mph 36 % 0 in
15:26 80.8 °F 51.3 °F 30.1 in SSE 6.9 mph 8.1 mph 36 % 0 in
15:31 81 °F 51.4 °F 30.1 in East 4.6 mph 4.6 mph 36 % 0 in
15:36 80.2 °F 52.3 °F 30.1 in SW 4.6 mph 4.6 mph 38 % 0 in
15:41 80.4 °F 51.8 °F 30.1 in SE 12.7 mph 12.7 mph 37 % 0 in
15:46 79.9 °F 51.3 °F 30.1 in ESE 8.1 mph 8.1 mph 37 % 0 in
15:51 79.5 °F 51.1 °F 30 in SSW 6.9 mph 6.9 mph 37 % 0 in
15:56 79.5 °F 51.1 °F 30 in ENE 6.9 mph 6.9 mph 37 % 0 in
16:01 80.1 °F 51.4 °F 30 in SSE 4.6 mph 4.6 mph 37 % 0 in
16:06 80.2 °F 51.6 °F 30.1 in SE 9.2 mph 9.2 mph 37 % 0 in
16:11 81.5 °F 52.7 °F 30.1 in South 5.4 mph 5.4 mph 37 % 0 in
16:16 82.2 °F 53.4 °F 30.1 in SSW 5.8 mph 5.8 mph 37 % 0 in
16:21 83.1 °F 53.4 °F 30.1 in South 5.8 mph 5.8 mph 36 % 0 in
16:26 80.4 °F 51.8 °F 30.1 in NE 5.8 mph 5.8 mph 37 % 0 in
16:31 80.4 °F 51.1 °F 30.1 in SSE 6 mph 6 mph 36 % 0 in
16:36 80.2 °F 51.6 °F 30.1 in ESE 4.9 mph 4.9 mph 37 % 0 in
16:41 79.7 °F 50.4 °F 30.1 in ENE 12.1 mph 12.1 mph 36 % 0 in
16:46 79.3 °F 50.2 °F 30.1 in SE 6.9 mph 6.9 mph 36 % 0 in
16:51 78.6 °F 49.5 °F 30.1 in East 8.1 mph 8.1 mph 36 % 0 in
16:56 78.4 °F 49.3 °F 30.1 in ESE 8.1 mph 8.1 mph 36 % 0 in
17:01 77.7 °F 47.8 °F 30.1 in East 9.2 mph 9.2 mph 35 % 0 in
17:06 77.5 °F 47.7 °F 30 in East 8.1 mph 8.1 mph 35 % 0 in
17:11 78.1 °F 48.2 °F 30 in ESE 9.2 mph 9.2 mph 35 % 0 in
17:16 78.1 °F 48.2 °F 30 in ENE 8.1 mph 8.1 mph 35 % 0 in
17:21 77.7 °F 47.8 °F 30.1 in East 10.4 mph 10.4 mph 35 % 0 in
17:26 77.2 °F 47.5 °F 30.1 in ESE 10.4 mph 10.4 mph 35 % 0 in
17:31 76.8 °F 47.8 °F 30.1 in East 10.4 mph 10.4 mph 36 % 0 in
17:36 76.8 °F 47.8 °F 30.1 in ESE 11.5 mph 11.5 mph 36 % 0 in
17:37 76.8 °F 48.6 °F 30.1 in ESE 9.2 mph 9.2 mph 37 % 0 in
17:42 76.5 °F 48.2 °F 30.1 in ENE 9.2 mph 9.2 mph 37 % 0 in
17:47 76.1 °F 47.8 °F 30.1 in SSE 11.5 mph 11.5 mph 37 % 0 in
17:52 76.5 °F 48.2 °F 30 in SE 10.7 mph 10.7 mph 37 % 0 in
17:57 76.1 °F 47.8 °F 30 in SE 8.1 mph 8.1 mph 37 % 0 in
18:02 76.1 °F 47.8 °F 30 in ESE 8.7 mph 8.7 mph 37 % 0 in
18:07 75.7 °F 47.7 °F 30.1 in ESE 10.4 mph 10.4 mph 37 % 0 in
18:12 75.4 °F 48 °F 30.1 in ESE 9.4 mph 9.4 mph 38 % 0 in
18:17 75.6 °F 47.5 °F 30.1 in South 10.5 mph 10.5 mph 37 % 0 in
18:22 75.6 °F 47.5 °F 30 in SE 10.4 mph 10.4 mph 37 % 0 in
18:27 75.4 °F 48 °F 30 in East 8.1 mph 8.1 mph 38 % 0 in
18:32 75.2 °F 47.8 °F 30 in ESE 8.7 mph 8.7 mph 38 % 0 in
18:37 75.6 °F 48.2 °F 30 in ESE 12.8 mph 12.8 mph 38 % 0 in
18:42 75.2 °F 47.8 °F 30 in ESE 10.4 mph 10.4 mph 38 % 0 in
18:47 75.2 °F 47.8 °F 30 in ESE 8.1 mph 8.1 mph 38 % 0 in
18:52 75.6 °F 48.2 °F 30 in ESE 8.1 mph 8.1 mph 38 % 0 in
18:57 75 °F 48.4 °F 30 in SSE 8.7 mph 8.7 mph 39 % 0 in
19:02 74.8 °F 48.2 °F 30 in East 8.1 mph 8.1 mph 39 % 0 in
19:07 75 °F 48.4 °F 30 in East 6.9 mph 6.9 mph 39 % 0 in
19:12 74.8 °F 48.2 °F 30 in SE 9.2 mph 9.2 mph 39 % 0 in
19:15 65.8 °F 50.2 °F 30.1 in Calm   1 mph 57 % 0 in
19:17 74.8 °F 48.2 °F 30 in ESE 6.9 mph 6.9 mph 39 % 0 in
19:22 74.7 °F 48 °F 30 in SSE 5.9 mph 5.9 mph 39 % 0 in
19:25 65.7 °F 50 °F 30.1 in Calm   1 mph 57 % 0 in
19:27 74.5 °F 47.8 °F 30 in East 5.9 mph 5.9 mph 39 % 0 in
19:32 74.5 °F 47.8 °F 30 in SSE 9.8 mph 9.8 mph 39 % 0 in
19:35 65.1 °F 49.5 °F 30.1 in Calm     57 % 0 in
19:37 73.9 °F 47.5 °F 30 in ESE 5.8 mph 5.8 mph 39 % 0 in
19:42 73.8 °F 47.8 °F 30 in ESE 6.9 mph 6.9 mph 40 % 0 in
19:45 64.4 °F 48.7 °F 30.1 in WNW 1 mph 2 mph 57 % 0 in
19:46 73.8 °F 47.8 °F 30 in East 6.9 mph 6.9 mph 40 % 0 in
19:51 73.9 °F 48 °F 30.1 in SSW 3.5 mph 3.5 mph 40 % 0 in
19:55 64 °F 48.9 °F 30.1 in Calm   1 mph 58 % 0 in
19:56 73.9 °F 48.7 °F 30.1 in ESE 6 mph 6 mph 41 % 0 in
20:01 73.6 °F 48.4 °F 30.1 in ESE 4.6 mph 4.6 mph 41 % 0 in
20:05 63.5 °F 48.6 °F 30.1 in WSW 2 mph 2 mph 58 % 0 in
20:06 73.6 °F 48.4 °F 30.1 in SSE 2.9 mph 2.9 mph 41 % 0 in
20:11 73.2 °F 48.7 °F 30.1 in ESE 4.6 mph 4.6 mph 42 % 0 in
20:15 63.1 °F 48 °F 30.1 in SW 2 mph 3 mph 58 % 0 in
20:16 73.2 °F 48.7 °F 30.1 in SSW 2.3 mph 2.3 mph 42 % 0 in
20:21 73 °F 48.6 °F 30.1 in East 5.8 mph 5.8 mph 42 % 0 in
20:25 62.8 °F 48.2 °F 30.1 in Calm   2 mph 59 % 0 in
20:26 72.7 °F 48.9 °F 30.1 in ESE 5.8 mph 5.8 mph 43 % 0 in
20:31 72.7 °F 49.5 °F 30.1 in ESE 3.5 mph 3.5 mph 44 % 0 in
20:35 62.4 °F 48.7 °F 30.1 in Calm   2 mph 61 % 0 in
20:36 72.3 °F 49.3 °F 30.1 in ESE 4.6 mph 4.6 mph 44 % 0 in
20:41 72 °F 49.5 °F 30.1 in ESE 5.8 mph 5.8 mph 45 % 0 in
20:45 62.2 °F 48.6 °F 30.1 in Calm     61 % 0 in
20:46 71.8 °F 49.8 °F 30.1 in East 3.6 mph 3.6 mph 46 % 0 in
20:51 71.4 °F 49.6 °F 30.1 in SE 4.6 mph 4.6 mph 46 % 0 in
20:55 62.2 °F 49.1 °F 30.1 in Calm   1 mph 62 % 0 in
20:56 71.2 °F 50 °F 30.1 in ESE 5.8 mph 5.8 mph 47 % 0 in
21:01 71.1 °F 49.8 °F 30.1 in ESE 3.5 mph 3.5 mph 47 % 0 in
21:05 62.2 °F 49.1 °F 30.1 in Calm   1 mph 62 % 0 in
21:06 70.7 °F 50 °F 30 in ESE 4.6 mph 4.6 mph 48 % 0 in
21:11 70.5 °F 49.8 °F 30 in ENE 2.3 mph 2.3 mph 48 % 0 in
21:15 62.1 °F 48.9 °F 30.1 in Calm   2 mph 62 % 0 in
21:16 70.3 °F 49.6 °F 30 in East 4.6 mph 4.6 mph 48 % 0 in
21:21 70 °F 49.5 °F 30.1 in SSW 4.6 mph 4.6 mph 48 % 0 in
21:25 62.1 °F 48.4 °F 30.1 in NE 1 mph   61 % 0 in
21:26 70 °F 49.5 °F 30.1 in ESE 2 mph 2 mph 48 % 0 in
21:31 69.8 °F 49.8 °F 30.1 in NE 3.5 mph 3.5 mph 49 % 0 in
21:35 62.2 °F 48.6 °F 30.1 in Calm     61 % 0 in
21:36 69.6 °F 50.2 °F 30.1 in ESE 3.5 mph 3.5 mph 50 % 0 in
21:41 69.4 °F 50.5 °F 30.1 in ESE 3.5 mph 3.5 mph 51 % 0 in
21:45 62.6 °F 48.6 °F 30.1 in Calm     60 % 0 in
21:46 69.3 °F 50.4 °F 30.1 in East 1.2 mph   51 % 0 in
21:51 69.1 °F 50.2 °F 30.1 in ESE 2.9 mph 2.9 mph 51 % 0 in
21:55 62.4 °F 49.3 °F 30.1 in Calm     62 % 0 in
21:56 69.1 °F 50.2 °F 30.1 in NE 1.4 mph 1.4 mph 51 % 0 in
22:01 68.9 °F 50 °F 30.1 in SSW 1.2 mph 1.2 mph 51 % 0 in
22:05 61.7 °F 48.6 °F 30.1 in Calm   2 mph 62 % 0 in
22:06 68.7 °F 49.8 °F 30.1 in Calm     51 % 0 in
22:11 68.5 °F 49.6 °F 30.1 in SW 1.2 mph 1.2 mph 51 % 0 in
22:15 61.5 °F 47.8 °F 30.1 in SW 1 mph 2 mph 61 % 0 in
22:16 68.4 °F 50 °F 30.1 in SW 1.6 mph 1.6 mph 52 % 0 in
22:21 68.2 °F 49.8 °F 30.1 in Calm     52 % 0 in
22:25 61.3 °F 48.2 °F 30.1 in Calm     62 % 0 in
22:26 68 °F 49.6 °F 30.1 in Calm     52 % 0 in
22:31 67.8 °F 49.5 °F 30.1 in Calm     52 % 0 in
22:35 61.2 °F 48 °F 30.1 in SW 2 mph 2 mph 62 % 0 in
22:36 67.8 °F 49.5 °F 30.1 in Calm     52 % 0 in
22:41 67.8 °F 50.2 °F 30.1 in NNE 1.2 mph 1.2 mph 53 % 0 in
22:45 61.2 °F 48 °F 30.1 in SW 1 mph 2 mph 62 % 0 in
22:46 67.6 °F 49.8 °F 30.1 in Calm     53 % 0 in
22:51 67.5 °F 49.6 °F 30.1 in Calm     53 % 0 in
22:55 61.2 °F 48 °F 30.1 in WSW 1 mph 2 mph 62 % 0 in
22:56 67.5 °F 49.6 °F 30.1 in NW 1.2 mph 1.2 mph 53 % 0 in
23:01 67.3 °F 50.2 °F 30.1 in NNW 1.2 mph   54 % 0 in
23:06 67.1 °F 49.8 °F 30.1 in Calm     54 % 0 in
23:11 66.9 °F 50.2 °F 30.1 in NNW 1.2 mph   55 % 0 in
23:15 61.2 °F 48.6 °F 30.1 in Calm     63 % 0 in
23:16 66.9 °F 50.2 °F 30.1 in Calm     55 % 0 in
23:21 66.7 °F 50.2 °F 30.1 in NNE 2 mph 2 mph 55 % 0 in
23:25 61.2 °F 48.6 °F 30.1 in Calm     63 % 0 in
23:26 66.7 °F 50.2 °F 30.1 in NNE 1.2 mph   55 % 0 in
23:31 66.6 °F 49.8 °F 30.1 in Calm     55 % 0 in
23:35 61.2 °F 48.6 °F 30 in Calm     63 % 0 in
23:36 66.6 °F 49.8 °F 30.1 in West 1.2 mph 1.2 mph 55 % 0 in
23:41 66.4 °F 49.6 °F 30.1 in Calm     55 % 0 in
23:45 61.5 °F 48.7 °F 30 in SW 1 mph 1 mph 63 % 0 in
23:46 66.2 °F 50 °F 30.1 in Calm     56 % 0 in
23:51 66.2 °F 50 °F 30.1 in Calm     56 % 0 in
23:55 61.5 °F 48.7 °F 30.1 in Calm     63 % 0 in
23:56 66.2 °F 50 °F 30.1 in Calm     56 % 0 in
Meteo Sesrovires
Elogis d' Weather Underground - 3.75 mb

Guio original per  Jim McMurry - jmcmurry@mwt.net Adaptat per a la plantilla per  Wim van der Kuil - Leuven-Template.eu

Trobareu la nostra informacio del temps tambe a:

Weather Underground

AWEKAS